Time;durP1;ratioP1;P1;durP2;ratioP2;P2;SDS_P1;SDS_P2;PMS_P1;PMS_P2;Temp;Humidity;BMP_temperature;BMP_pressure;BME280_temperature;BME280_humidity;BME280_pressure;Samples;Min_cycle;Max_cycle;Signal;HPM_P1;HPM_P2
2024/03/01 00:00:21;;;;;;;10.00;6.68;;;;;;;;;;5014011;28;20290;-92
2024/03/01 00:02:50;;;;;;;7.97;7.00;;;;;;;;;;5013644;28;20213;-92
2024/03/01 00:05:18;;;;;;;8.90;8.00;;;;;;;;;;5013642;28;20270;-92
2024/03/01 00:07:45;;;;;;;8.02;6.45;;;;;;;;;;5013743;28;20203;-92
2024/03/01 00:10:13;;;;;;;6.75;5.90;;;;;;;;;;5013362;28;20207;-92
2024/03/01 00:12:42;;;;;;;8.15;6.80;;;;;;;;;;5023605;28;20207;-92
2024/03/01 00:15:11;;;;;;;8.93;7.15;;;;;;;;;;5013427;28;20243;-92
2024/03/01 00:17:38;;;;;;;8.35;6.65;;;;;;;;;;5013600;28;20274;-92
2024/03/01 00:20:08;;;;;;;7.53;6.82;;;;;;;;;;5013452;28;20290;-92
2024/03/01 00:22:35;;;;;;;8.27;6.82;;;;;;;;;;5013246;28;20656;-93
2024/03/01 00:25:03;;;;;;;7.85;7.05;;;;;;;;;;5013195;28;20700;-92
2024/03/01 00:27:31;;;;;;;10.10;8.15;;;;;;;;;;5013515;28;20273;-92
2024/03/01 00:30:00;;;;;;;10.20;7.90;;;;;;;;;;5013436;28;20578;-93
2024/03/01 00:32:28;;;;;;;10.55;9.40;;;;;;;;;;5013857;28;20195;-93
2024/03/01 00:34:55;;;;;;;12.73;9.68;;;;;;;;;;5021946;28;20641;-93
2024/03/01 00:37:23;;;;;;;9.60;8.15;;;;;;;;;;5013210;28;20207;-93
2024/03/01 00:39:50;;;;;;;16.63;10.60;;;;;;;;;;5013118;28;20753;-92
2024/03/01 00:42:18;;;;;;;14.15;9.75;;;;;;;;;;5013229;28;20231;-93
2024/03/01 00:44:45;;;;;;;13.65;9.82;;;;;;;;;;5013163;28;20222;-92
2024/03/01 00:47:15;;;;;;;11.95;8.88;;;;;;;;;;5013108;28;20226;-91
2024/03/01 00:49:42;;;;;;;12.68;10.18;;;;;;;;;;5013306;28;20657;-92
2024/03/01 00:52:10;;;;;;;10.85;8.82;;;;;;;;;;5013023;28;20199;-92
2024/03/01 00:54:37;;;;;;;11.57;8.98;;;;;;;;;;5013101;28;20231;-92
2024/03/01 00:57:05;;;;;;;11.80;10.20;;;;;;;;;;5012882;28;20234;-92
2024/03/01 00:59:33;;;;;;;15.40;11.18;;;;;;;;;;5012840;28;20279;-92
2024/03/01 01:02:00;;;;;;;15.65;10.80;;;;;;;;;;5013044;28;20225;-92
2024/03/01 01:04:29;;;;;;;15.30;12.70;;;;;;;;;;5013359;28;20309;-92
2024/03/01 01:06:57;;;;;;;13.88;10.40;;;;;;;;;;5012529;28;20305;-91
2024/03/01 01:09:25;;;;;;;13.07;10.38;;;;;;;;;;5012745;28;20282;-92
2024/03/01 01:11:52;;;;;;;12.82;9.85;;;;;;;;;;5012662;28;20287;-92
2024/03/01 01:14:20;;;;;;;14.52;10.85;;;;;;;;;;5012702;28;20340;-92
2024/03/01 01:16:46;;;;;;;14.18;10.88;;;;;;;;;;5012781;28;20245;-92
2024/03/01 01:19:14;;;;;;;14.93;11.88;;;;;;;;;;5012634;28;20207;-92
2024/03/01 01:21:43;;;;;;;17.67;12.15;;;;;;;;;;5012540;28;20653;-93
2024/03/01 01:24:11;;;;;;;13.00;10.05;;;;;;;;;;5013817;28;20286;-92
2024/03/01 01:26:39;;;;;;;15.55;11.23;;;;;;;;;;5016351;28;20226;-93
2024/03/01 01:29:07;;;;;;;13.57;10.32;;;;;;;;;;5016604;28;20761;-92
2024/03/01 01:31:35;;;;;;;18.50;12.45;;;;;;;;;;5016347;28;20256;-92
2024/03/01 01:34:02;;;;;;;13.45;9.90;;;;;;;;;;5016539;28;20767;-92
2024/03/01 01:36:30;;;;;;;14.57;10.00;;;;;;;;;;5022491;28;20182;-92
2024/03/01 01:38:59;;;;;;;12.43;10.10;;;;;;;;;;5020835;28;20199;-92
2024/03/01 01:41:27;;;;;;;12.50;9.15;;;;;;;;;;5016497;28;20226;-93
2024/03/01 01:43:55;;;;;;;8.30;7.10;;;;;;;;;;5016591;28;20293;-92
2024/03/01 01:46:22;;;;;;;7.82;6.85;;;;;;;;;;5016003;28;20237;-92
2024/03/01 01:48:50;;;;;;;7.97;5.97;;;;;;;;;;5016400;28;20203;-92
2024/03/01 01:51:19;;;;;;;6.85;6.10;;;;;;;;;;5016196;28;20261;-92
2024/03/01 01:53:47;;;;;;;6.70;5.20;;;;;;;;;;5016139;28;20234;-92
2024/03/01 01:56:16;;;;;;;8.70;6.88;;;;;;;;;;5016317;28;20211;-92
2024/03/01 01:58:45;;;;;;;7.30;6.10;;;;;;;;;;5016817;28;20257;-93
2024/03/01 02:01:15;;;;;;;7.35;6.07;;;;;;;;;;5026506;28;20290;-92
2024/03/01 02:03:43;;;;;;;10.40;7.93;;;;;;;;;;5015668;28;20704;-92
2024/03/01 02:06:11;;;;;;;7.70;6.75;;;;;;;;;;5015909;28;20273;-92
2024/03/01 02:08:39;;;;;;;6.35;5.30;;;;;;;;;;5015865;28;20210;-92
2024/03/01 02:11:08;;;;;;;7.72;5.80;;;;;;;;;;5016746;28;20249;-91
2024/03/01 02:13:37;;;;;;;7.88;6.20;;;;;;;;;;5016358;28;20223;-92
2024/03/01 02:16:05;;;;;;;6.75;6.10;;;;;;;;;;5016551;28;20202;-92
2024/03/01 02:18:34;;;;;;;7.63;6.57;;;;;;;;;;5016149;28;20627;-92
2024/03/01 02:21:07;;;;;;;9.02;7.55;;;;;;;;;;5015930;28;20313;-93
2024/03/01 02:23:37;;;;;;;7.45;6.43;;;;;;;;;;5015528;28;20230;-91
2024/03/01 02:26:05;;;;;;;6.95;6.25;;;;;;;;;;5016081;28;20226;-92
2024/03/01 02:28:33;;;;;;;6.80;6.05;;;;;;;;;;5015859;28;20203;-92
2024/03/01 02:31:01;;;;;;;6.63;5.95;;;;;;;;;;5015646;28;20245;-92
2024/03/01 02:33:29;;;;;;;6.72;5.82;;;;;;;;;;5015427;28;20230;-92
2024/03/01 02:35:57;;;;;;;6.38;5.72;;;;;;;;;;5015601;28;20291;-92
2024/03/01 02:38:24;;;;;;;7.35;6.57;;;;;;;;;;5015535;28;20262;-93
2024/03/01 02:40:54;;;;;;;7.35;6.15;;;;;;;;;;5015872;28;20231;-93
2024/03/01 02:43:21;;;;;;;7.47;6.72;;;;;;;;;;5015235;28;20218;-92
2024/03/01 02:45:49;;;;;;;7.60;6.82;;;;;;;;;;5015442;28;20290;-92
2024/03/01 02:48:16;;;;;;;8.80;7.03;;;;;;;;;;5014892;28;20253;-92
2024/03/01 02:50:44;;;;;;;8.32;6.72;;;;;;;;;;5015189;28;20286;-92
2024/03/01 02:53:12;;;;;;;8.90;6.82;;;;;;;;;;5015209;28;20278;-92
2024/03/01 02:55:39;;;;;;;8.45;6.57;;;;;;;;;;5123179;22;20222;-96
2024/03/01 02:58:08;;;;;;;8.05;7.13;;;;;;;;;;5039976;28;20311;-96
2024/03/01 03:00:36;;;;;;;7.35;6.07;;;;;;;;;;5039728;28;20183;-95
2024/03/01 03:03:04;;;;;;;11.05;7.32;;;;;;;;;;5039081;28;20218;-96
2024/03/01 03:05:31;;;;;;;10.13;8.75;;;;;;;;;;5039116;28;20206;-95
2024/03/01 03:07:59;;;;;;;10.68;8.82;;;;;;;;;;5038910;28;20215;-96
2024/03/01 03:10:27;;;;;;;9.80;8.20;;;;;;;;;;5039326;28;20262;-95
2024/03/01 03:12:54;;;;;;;13.13;10.48;;;;;;;;;;5039235;28;20191;-96
2024/03/01 03:15:23;;;;;;;17.00;13.55;;;;;;;;;;5039316;28;20210;-95
2024/03/01 03:17:51;;;;;;;19.05;11.40;;;;;;;;;;5038751;28;20197;-96
2024/03/01 03:20:19;;;;;;;12.38;10.48;;;;;;;;;;5039344;28;20194;-95
2024/03/01 03:22:47;;;;;;;13.93;11.32;;;;;;;;;;5039258;28;20222;-95
2024/03/01 03:25:15;;;;;;;15.73;10.45;;;;;;;;;;5038919;28;20234;-96
2024/03/01 03:27:43;;;;;;;14.25;11.30;;;;;;;;;;5038550;28;20226;-96
2024/03/01 03:30:12;;;;;;;12.52;10.25;;;;;;;;;;5038207;28;20199;-94
2024/03/01 03:32:41;;;;;;;10.00;8.48;;;;;;;;;;5037832;28;20199;-95
2024/03/01 03:35:09;;;;;;;12.00;9.65;;;;;;;;;;5038360;28;20207;-95
2024/03/01 03:37:37;;;;;;;14.65;10.75;;;;;;;;;;5037366;28;20207;-95
2024/03/01 03:40:13;;;;;;;12.15;10.05;;;;;;;;;;5035002;28;20203;-95
2024/03/01 03:42:41;;;;;;;15.60;11.10;;;;;;;;;;5038540;28;20203;-96
2024/03/01 03:45:10;;;;;;;17.75;11.40;;;;;;;;;;5038769;28;20237;-95
2024/03/01 03:47:38;;;;;;;15.43;10.60;;;;;;;;;;5038196;28;20227;-95
2024/03/01 03:50:09;;;;;;;13.77;11.48;;;;;;;;;;5038765;28;20183;-96
2024/03/01 03:52:37;;;;;;;11.40;8.98;;;;;;;;;;5038619;28;20191;-96
2024/03/01 03:55:07;;;;;;;14.82;12.05;;;;;;;;;;5038721;28;20219;-95
2024/03/01 03:57:35;;;;;;;11.38;9.07;;;;;;;;;;5038812;28;20183;-96
2024/03/01 04:00:03;;;;;;;11.27;9.35;;;;;;;;;;5038777;28;20187;-96
2024/03/01 04:02:31;;;;;;;11.57;8.60;;;;;;;;;;5038652;28;20222;-96
2024/03/01 04:04:59;;;;;;;12.32;9.02;;;;;;;;;;5038356;28;20207;-95
2024/03/01 04:07:29;;;;;;;10.27;7.43;;;;;;;;;;5038444;28;20218;-95
2024/03/01 04:09:56;;;;;;;9.85;7.95;;;;;;;;;;5038594;28;20175;-96
2024/03/01 04:12:24;;;;;;;9.55;7.28;;;;;;;;;;5037880;28;20187;-96
2024/03/01 04:14:51;;;;;;;9.85;8.50;;;;;;;;;;5038320;28;20215;-95
2024/03/01 04:17:19;;;;;;;11.05;9.32;;;;;;;;;;5038386;28;20251;-95
2024/03/01 04:19:46;;;;;;;10.75;8.60;;;;;;;;;;5037839;28;20183;-94
2024/03/01 04:22:15;;;;;;;11.82;9.65;;;;;;;;;;5036769;28;20195;-96
2024/03/01 04:24:44;;;;;;;13.77;9.95;;;;;;;;;;5038327;28;20207;-95
2024/03/01 04:27:12;;;;;;;14.38;10.75;;;;;;;;;;5038236;28;20259;-96
2024/03/01 04:29:40;;;;;;;21.40;9.20;;;;;;;;;;5038286;28;20259;-95
2024/03/01 04:32:08;;;;;;;10.20;8.27;;;;;;;;;;5037562;28;20191;-95
2024/03/01 04:34:36;;;;;;;12.15;9.55;;;;;;;;;;5038201;28;20218;-95
2024/03/01 04:37:04;;;;;;;12.07;9.23;;;;;;;;;;5037964;28;20190;-96
2024/03/01 04:39:32;;;;;;;10.38;8.50;;;;;;;;;;5037533;28;20187;-94
2024/03/01 04:42:01;;;;;;;13.25;10.60;;;;;;;;;;5038068;28;20258;-95
2024/03/01 04:44:29;;;;;;;11.32;9.35;;;;;;;;;;5037560;28;20202;-94
2024/03/01 04:46:57;;;;;;;12.90;10.73;;;;;;;;;;5037947;28;20190;-94
2024/03/01 04:49:24;;;;;;;14.73;10.80;;;;;;;;;;5037460;28;20286;-93
2024/03/01 04:51:52;;;;;;;12.35;8.88;;;;;;;;;;5037357;28;20199;-94
2024/03/01 04:54:20;;;;;;;10.55;9.27;;;;;;;;;;5037234;28;20249;-94
2024/03/01 04:56:48;;;;;;;12.15;9.48;;;;;;;;;;5037757;28;20222;-95
2024/03/01 04:59:17;;;;;;;9.85;8.85;;;;;;;;;;5037671;28;20186;-94
2024/03/01 05:01:44;;;;;;;12.02;8.85;;;;;;;;;;5037747;28;20194;-94
2024/03/01 05:04:12;;;;;;;13.90;9.43;;;;;;;;;;5037727;28;20225;-94
2024/03/01 05:06:39;;;;;;;11.32;10.13;;;;;;;;;;5037571;28;20186;-94
2024/03/01 05:09:08;;;;;;;12.73;9.32;;;;;;;;;;5037837;28;20238;-94
2024/03/01 05:11:36;;;;;;;8.57;7.72;;;;;;;;;;5037431;28;20187;-94
2024/03/01 05:14:04;;;;;;;10.27;8.32;;;;;;;;;;5037044;28;20203;-94
2024/03/01 05:16:34;;;;;;;11.60;9.88;;;;;;;;;;5037755;28;20395;-93
2024/03/01 05:19:02;;;;;;;10.48;9.32;;;;;;;;;;5037743;28;20247;-93
2024/03/01 05:21:30;;;;;;;11.82;8.70;;;;;;;;;;5037092;28;20217;-94
2024/03/01 05:23:58;;;;;;;15.55;11.95;;;;;;;;;;5036668;28;20483;-94
2024/03/01 05:26:26;;;;;;;9.60;8.60;;;;;;;;;;5037427;28;20183;-94
2024/03/01 05:28:54;;;;;;;12.20;8.80;;;;;;;;;;5037283;28;20222;-93
2024/03/01 05:31:22;;;;;;;12.45;9.60;;;;;;;;;;5037197;28;20200;-93
2024/03/01 05:33:51;;;;;;;9.88;7.93;;;;;;;;;;5037086;28;20239;-94
2024/03/01 05:36:18;;;;;;;14.95;12.05;;;;;;;;;;5037052;28;20195;-94
2024/03/01 05:38:46;;;;;;;16.77;12.68;;;;;;;;;;5033336;28;20203;-93
2024/03/01 05:41:13;;;;;;;12.95;9.18;;;;;;;;;;5033701;28;20207;-93
2024/03/01 05:43:41;;;;;;;10.48;9.10;;;;;;;;;;5037271;28;20211;-95
2024/03/01 05:46:17;;;;;;;9.93;8.77;;;;;;;;;;5037217;28;20185;-94
2024/03/01 05:48:45;;;;;;;9.48;7.93;;;;;;;;;;5036978;28;20214;-94
2024/03/01 05:51:14;;;;;;;8.93;7.20;;;;;;;;;;5036995;28;20230;-95
2024/03/01 05:53:42;;;;;;;9.43;8.10;;;;;;;;;;5037117;28;20180;-95
2024/03/01 05:56:17;;;;;;;13.07;8.93;;;;;;;;;;5037271;28;20190;-93
2024/03/01 05:58:46;;;;;;;12.60;9.70;;;;;;;;;;5037346;28;20198;-94
2024/03/01 06:01:16;;;;;;;15.73;11.60;;;;;;;;;;5037290;28;20206;-95
2024/03/01 06:03:44;;;;;;;16.08;12.30;;;;;;;;;;5037036;28;20191;-96
2024/03/01 06:06:15;;;;;;;19.33;12.48;;;;;;;;;;5037393;28;20190;-94
2024/03/01 06:08:43;;;;;;;12.15;10.27;;;;;;;;;;5037205;28;20215;-94
2024/03/01 06:11:11;;;;;;;15.55;11.95;;;;;;;;;;5039619;28;20179;-94
2024/03/01 06:13:39;;;;;;;16.80;12.13;;;;;;;;;;5040579;28;20239;-94
2024/03/01 06:16:08;;;;;;;18.50;12.60;;;;;;;;;;5040833;28;20254;-95
2024/03/01 06:18:35;;;;;;;14.52;11.18;;;;;;;;;;5040571;28;20254;-95
2024/03/01 06:21:03;;;;;;;18.23;14.50;;;;;;;;;;5039927;28;20207;-94
2024/03/01 06:23:32;;;;;;;17.35;14.05;;;;;;;;;;5039101;28;20203;-94
2024/03/01 06:26:00;;;;;;;17.02;14.40;;;;;;;;;;5039339;28;20221;-93
2024/03/01 06:28:27;;;;;;;15.98;11.75;;;;;;;;;;5040302;28;20194;-94
2024/03/01 06:30:55;;;;;;;18.10;13.27;;;;;;;;;;5040365;28;20198;-93
2024/03/01 06:33:23;;;;;;;20.13;13.02;;;;;;;;;;5040216;28;20187;-93
2024/03/01 06:35:50;;;;;;;17.73;13.10;;;;;;;;;;5040307;28;20214;-94
2024/03/01 06:38:18;;;;;;;22.90;15.45;;;;;;;;;;5038000;28;20242;-93
2024/03/01 06:40:47;;;;;;;23.70;17.08;;;;;;;;;;5035867;28;20214;-94
2024/03/01 06:43:14;;;;;;;18.80;14.43;;;;;;;;;;5040032;28;20207;-94
2024/03/01 06:45:42;;;;;;;13.68;11.20;;;;;;;;;;5039965;28;20211;-94
2024/03/01 06:48:10;;;;;;;21.55;13.65;;;;;;;;;;5039999;28;20195;-95
2024/03/01 06:50:38;;;;;;;14.25;11.15;;;;;;;;;;5040063;28;20222;-94
2024/03/01 06:53:05;;;;;;;15.93;12.20;;;;;;;;;;5039830;28;20194;-95
2024/03/01 06:55:33;;;;;;;18.88;14.35;;;;;;;;;;5039227;28;20246;-95
2024/03/01 06:58:02;;;;;;;15.63;12.25;;;;;;;;;;5039728;28;20206;-94
2024/03/01 07:00:30;;;;;;;18.08;13.00;;;;;;;;;;5039814;28;20206;-95
2024/03/01 07:02:58;;;;;;;20.60;13.52;;;;;;;;;;5039623;28;20203;-93
2024/03/01 07:05:27;;;;;;;16.23;13.32;;;;;;;;;;5039204;28;20226;-94
2024/03/01 07:07:55;;;;;;;16.63;12.57;;;;;;;;;;5039660;28;20191;-94
2024/03/01 07:10:23;;;;;;;20.33;14.57;;;;;;;;;;5039502;28;20249;-94
2024/03/01 07:12:51;;;;;;;21.75;16.05;;;;;;;;;;5039633;28;20184;-94
2024/03/01 07:15:20;;;;;;;16.73;12.50;;;;;;;;;;5039498;28;20203;-95
2024/03/01 07:17:48;;;;;;;21.95;14.63;;;;;;;;;;5039403;28;20194;-94
2024/03/01 07:20:15;;;;;;;21.95;15.77;;;;;;;;;;5039000;28;20199;-93
2024/03/01 07:22:43;;;;;;;18.85;15.20;;;;;;;;;;5037996;28;20191;-94
2024/03/01 07:25:11;;;;;;;18.25;13.18;;;;;;;;;;5039028;28;20200;-93
2024/03/01 07:27:38;;;;;;;17.38;13.75;;;;;;;;;;5032174;28;20207;-94
2024/03/01 07:30:07;;;;;;;20.40;15.52;;;;;;;;;;5028214;28;20262;-93
2024/03/01 07:32:36;;;;;;;24.92;16.13;;;;;;;;;;5024629;28;20227;-94
2024/03/01 07:35:05;;;;;;;25.58;17.05;;;;;;;;;;5024012;28;20254;-93
2024/03/01 07:37:36;;;;;;;25.02;17.73;;;;;;;;;;5037579;28;20198;-93
2024/03/01 07:40:06;;;;;;;25.30;16.45;;;;;;;;;;5039149;28;20199;-95
2024/03/01 07:42:34;;;;;;;24.65;17.50;;;;;;;;;;5034049;28;20203;-95
2024/03/01 07:45:04;;;;;;;24.45;16.05;;;;;;;;;;5037276;28;20203;-95
2024/03/01 07:47:33;;;;;;;20.15;15.07;;;;;;;;;;5037876;28;20199;-93
2024/03/01 07:50:03;;;;;;;23.02;17.70;;;;;;;;;;5036753;28;20234;-94
2024/03/01 07:52:31;;;;;;;27.80;19.23;;;;;;;;;;5037399;28;20187;-94
2024/03/01 07:54:59;;;;;;;23.75;15.40;;;;;;;;;;5033924;28;20235;-95
2024/03/01 07:57:27;;;;;;;22.08;15.13;;;;;;;;;;5038235;28;20213;-94
2024/03/01 07:59:55;;;;;;;19.60;15.15;;;;;;;;;;5038619;28;20190;-96
2024/03/01 08:02:22;;;;;;;25.20;17.10;;;;;;;;;;5037960;28;20198;-95
2024/03/01 08:04:50;;;;;;;21.10;14.75;;;;;;;;;;5036233;28;20223;-94
2024/03/01 08:07:20;;;;;;;21.20;15.60;;;;;;;;;;5034536;28;20190;-94
2024/03/01 08:09:48;;;;;;;22.25;15.40;;;;;;;;;;5037300;28;20218;-94
2024/03/01 08:12:18;;;;;;;22.00;15.98;;;;;;;;;;5037421;28;20195;-94
2024/03/01 08:14:46;;;;;;;20.75;15.60;;;;;;;;;;5036100;28;20230;-95
2024/03/01 08:17:14;;;;;;;23.15;16.08;;;;;;;;;;5038675;28;20194;-95
2024/03/01 08:19:44;;;;;;;19.98;14.48;;;;;;;;;;5038558;28;20183;-95
2024/03/01 08:22:14;;;;;;;20.05;14.70;;;;;;;;;;5036183;28;20267;-95
2024/03/01 08:24:46;;;;;;;21.83;14.25;;;;;;;;;;5028039;28;20222;-94
2024/03/01 08:27:15;;;;;;;22.67;15.85;;;;;;;;;;5031444;28;20226;-95
2024/03/01 08:29:43;;;;;;;17.92;13.57;;;;;;;;;;5029211;28;20211;-94
2024/03/01 08:32:28;;;;;;;20.25;14.95;;;;;;;;;;5029808;28;20271;-92
2024/03/01 08:34:57;;;;;;;20.70;15.57;;;;;;;;;;5033111;28;20227;-93
2024/03/01 08:37:26;;;;;;;21.05;15.95;;;;;;;;;;5032193;28;20213;-92
2024/03/01 08:39:55;;;;;;;17.83;14.90;;;;;;;;;;5033995;28;20207;-93
2024/03/01 08:42:24;;;;;;;20.63;14.07;;;;;;;;;;5034718;28;20204;-93
2024/03/01 08:44:59;;;;;;;21.58;14.73;;;;;;;;;;5033039;28;20215;-93
2024/03/01 08:47:32;;;;;;;22.70;14.75;;;;;;;;;;5035463;28;20231;-92
2024/03/01 08:50:47;;;;;;;20.17;15.27;;;;;;;;;;5033879;28;20237;-93
2024/03/01 08:53:53;;;;;;;19.27;14.60;;;;;;;;;;5031694;28;20199;-92
2024/03/01 08:56:22;;;;;;;18.50;13.27;;;;;;;;;;5104567;22;20672;-89
2024/03/01 08:58:50;;;;;;;21.50;13.95;;;;;;;;;;5013051;28;20233;-91
2024/03/01 09:01:46;;;;;;;19.92;14.52;;;;;;;;;;5012563;28;20203;-89
2024/03/01 09:04:20;;;;;;;21.17;16.33;;;;;;;;;;5010494;28;20286;-89
2024/03/01 09:07:05;;;;;;;17.90;13.38;;;;;;;;;;4993328;28;20204;-90
2024/03/01 09:09:33;;;;;;;21.92;14.77;;;;;;;;;;4997824;28;20200;-89
2024/03/01 09:12:02;;;;;;;16.42;13.13;;;;;;;;;;4992680;28;20230;-89
2024/03/01 09:14:32;;;;;;;18.20;14.02;;;;;;;;;;4993405;28;20216;-88
2024/03/01 09:17:01;;;;;;;17.15;13.60;;;;;;;;;;5011183;28;20194;-88
2024/03/01 09:19:36;;;;;;;16.73;12.95;;;;;;;;;;5017248;28;20187;-88
2024/03/01 09:22:04;;;;;;;21.08;14.82;;;;;;;;;;5016269;28;20199;-88
2024/03/01 09:24:36;;;;;;;19.30;14.73;;;;;;;;;;5017640;28;20184;-88
2024/03/01 09:27:11;;;;;;;16.88;13.52;;;;;;;;;;5002514;28;20287;-88
2024/03/01 09:29:39;;;;;;;18.00;13.68;;;;;;;;;;4993818;28;20271;-88
2024/03/01 09:32:08;;;;;;;21.63;15.65;;;;;;;;;;4993339;28;20652;-89
2024/03/01 09:34:37;;;;;;;21.70;13.77;;;;;;;;;;4993132;28;20314;-88
2024/03/01 09:37:13;;;;;;;17.88;14.02;;;;;;;;;;4993016;28;20231;-89
2024/03/01 09:39:42;;;;;;;21.33;14.02;;;;;;;;;;4992915;28;20195;-89
2024/03/01 09:42:39;;;;;;;20.63;14.98;;;;;;;;;;4992609;28;20240;-89
2024/03/01 09:45:40;;;;;;;15.93;13.15;;;;;;;;;;4993920;28;20227;-88
2024/03/01 09:48:15;;;;;;;16.08;10.88;;;;;;;;;;4998412;28;20214;-88
2024/03/01 09:51:04;;;;;;;14.25;11.70;;;;;;;;;;4999864;28;20232;-90
2024/03/01 09:53:46;;;;;;;17.77;13.70;;;;;;;;;;4999087;28;20200;-90
2024/03/01 09:56:23;;;;;;;16.35;12.85;;;;;;;;;;4996720;28;20326;-90
2024/03/01 09:59:01;;;;;;;15.20;11.25;;;;;;;;;;4996714;28;20210;-89
2024/03/01 10:01:36;;;;;;;10.95;9.40;;;;;;;;;;4996659;28;20192;-89
2024/03/01 10:04:15;;;;;;;18.75;10.70;;;;;;;;;;4996823;28;20210;-90
2024/03/01 10:07:03;;;;;;;14.85;11.95;;;;;;;;;;4996344;28;20669;-91
2024/03/01 10:09:48;;;;;;;15.38;10.52;;;;;;;;;;4997363;28;20191;-91
2024/03/01 10:12:28;;;;;;;14.77;11.38;;;;;;;;;;5002499;28;20251;-90
2024/03/01 10:15:02;;;;;;;14.70;11.15;;;;;;;;;;4996306;28;20231;-90
2024/03/01 10:17:41;;;;;;;18.15;12.35;;;;;;;;;;4996545;28;20203;-91
2024/03/01 10:20:25;;;;;;;16.33;11.32;;;;;;;;;;4996657;28;20253;-91
2024/03/01 10:23:17;;;;;;;16.73;12.52;;;;;;;;;;4997349;28;20212;-91
2024/03/01 10:25:53;;;;;;;16.17;13.15;;;;;;;;;;4997159;28;20279;-91
2024/03/01 10:28:39;;;;;;;16.67;12.43;;;;;;;;;;4997382;28;20282;-90
2024/03/01 10:31:21;;;;;;;18.95;12.45;;;;;;;;;;4997024;28;21066;-89
2024/03/01 10:33:55;;;;;;;17.85;14.98;;;;;;;;;;4995905;28;20204;-92
2024/03/01 10:36:29;;;;;;;16.33;13.05;;;;;;;;;;4998251;28;20238;-91
2024/03/01 10:39:04;;;;;;;11.73;9.23;;;;;;;;;;4996612;28;20222;-91
2024/03/01 10:41:44;;;;;;;13.30;10.40;;;;;;;;;;4999100;28;20286;-91
2024/03/01 10:44:18;;;;;;;16.27;11.43;;;;;;;;;;5005652;28;20635;-90
2024/03/01 10:46:56;;;;;;;14.73;10.75;;;;;;;;;;5009994;28;20206;-89
2024/03/01 10:49:31;;;;;;;13.73;10.80;;;;;;;;;;5013770;28;20207;-90
2024/03/01 10:52:07;;;;;;;14.82;12.35;;;;;;;;;;5013146;28;20251;-91
2024/03/01 10:54:35;;;;;;;13.05;11.23;;;;;;;;;;5003410;28;20235;-91
2024/03/01 10:57:04;;;;;;;12.82;10.48;;;;;;;;;;5000522;28;20272;-91
2024/03/01 10:59:36;;;;;;;12.93;10.65;;;;;;;;;;5005897;28;20263;-91
2024/03/01 11:02:13;;;;;;;15.38;11.25;;;;;;;;;;5000563;28;20259;-90
2024/03/01 11:04:51;;;;;;;15.27;11.65;;;;;;;;;;4997725;28;20302;-90
2024/03/01 11:07:30;;;;;;;12.35;9.63;;;;;;;;;;4999408;28;20223;-91
2024/03/01 11:10:02;;;;;;;14.18;11.20;;;;;;;;;;5000813;28;20290;-92
2024/03/01 11:12:36;;;;;;;14.77;11.80;;;;;;;;;;4997532;28;20251;-90
2024/03/01 11:15:08;;;;;;;10.40;9.38;;;;;;;;;;4997361;28;20229;-92
2024/03/01 11:17:39;;;;;;;10.98;8.73;;;;;;;;;;4996386;28;20211;-91
2024/03/01 11:20:12;;;;;;;14.43;11.00;;;;;;;;;;4995261;28;20658;-90
2024/03/01 11:22:43;;;;;;;10.50;8.77;;;;;;;;;;4994896;28;20254;-91
2024/03/01 11:25:16;;;;;;;11.10;8.70;;;;;;;;;;4995862;28;20227;-92
2024/03/01 11:27:52;;;;;;;10.60;8.55;;;;;;;;;;4995190;28;20215;-90
2024/03/01 11:30:23;;;;;;;9.77;7.50;;;;;;;;;;4995026;28;20291;-92
2024/03/01 11:33:00;;;;;;;10.07;7.45;;;;;;;;;;4994657;28;20223;-91
2024/03/01 11:35:37;;;;;;;12.73;11.20;;;;;;;;;;4994961;28;20219;-91
2024/03/01 11:38:14;;;;;;;10.50;8.90;;;;;;;;;;4995674;28;20269;-91
2024/03/01 11:40:54;;;;;;;11.88;9.40;;;;;;;;;;4995180;28;20286;-92
2024/03/01 11:43:39;;;;;;;14.25;10.05;;;;;;;;;;4994970;28;20282;-91
2024/03/01 11:46:31;;;;;;;13.35;11.02;;;;;;;;;;4994683;28;20227;-91
2024/03/01 11:49:15;;;;;;;13.43;11.20;;;;;;;;;;4994848;28;20279;-92
2024/03/01 11:51:51;;;;;;;11.65;10.07;;;;;;;;;;4994683;28;20582;-91
2024/03/01 11:54:41;;;;;;;12.10;10.07;;;;;;;;;;4996857;28;20551;-92
2024/03/01 11:57:24;;;;;;;10.43;9.32;;;;;;;;;;4995353;28;20207;-91
2024/03/01 12:00:36;;;;;;;11.65;9.35;;;;;;;;;;4994698;28;20286;-93
2024/03/01 12:03:47;;;;;;;13.23;10.13;;;;;;;;;;5002528;28;20218;-92
2024/03/01 12:06:29;;;;;;;11.52;9.57;;;;;;;;;;4994828;28;20252;-91
2024/03/01 12:09:07;;;;;;;14.52;10.88;;;;;;;;;;4994408;28;20291;-91
2024/03/01 12:11:43;;;;;;;13.38;10.10;;;;;;;;;;4995223;28;20214;-92
2024/03/01 12:14:15;;;;;;;11.07;9.80;;;;;;;;;;4995094;28;20216;-91
2024/03/01 12:16:50;;;;;;;12.25;7.68;;;;;;;;;;4994454;28;20211;-91
2024/03/01 12:19:21;;;;;;;9.52;8.63;;;;;;;;;;4994258;28;20454;-91
2024/03/01 12:22:17;;;;;;;8.93;7.43;;;;;;;;;;4994294;28;20271;-92
2024/03/01 12:24:46;;;;;;;7.65;6.85;;;;;;;;;;5000063;28;20776;-93
2024/03/01 12:27:21;;;;;;;11.68;8.55;;;;;;;;;;5008686;28;20195;-91
2024/03/01 12:30:05;;;;;;;7.57;6.55;;;;;;;;;;4996971;28;20278;-91
2024/03/01 12:32:46;;;;;;;7.82;7.00;;;;;;;;;;4994009;28;20670;-91
2024/03/01 12:35:30;;;;;;;9.30;7.53;;;;;;;;;;4994329;28;20231;-91
2024/03/01 12:38:11;;;;;;;11.25;7.82;;;;;;;;;;4994346;28;20207;-92
2024/03/01 12:40:43;;;;;;;9.73;8.40;;;;;;;;;;4994465;28;20587;-91
2024/03/01 12:43:31;;;;;;;8.55;6.15;;;;;;;;;;4993845;28;20283;-91
2024/03/01 12:46:16;;;;;;;8.55;6.72;;;;;;;;;;4993883;28;20219;-92
2024/03/01 12:48:58;;;;;;;9.65;7.43;;;;;;;;;;4993823;28;20210;-91
2024/03/01 12:51:29;;;;;;;6.85;6.15;;;;;;;;;;4993572;28;20662;-91
2024/03/01 12:54:07;;;;;;;9.57;7.68;;;;;;;;;;4993376;28;20311;-91
2024/03/01 12:56:41;;;;;;;11.48;8.27;;;;;;;;;;4993900;28;20235;-91
2024/03/01 12:59:26;;;;;;;7.28;5.95;;;;;;;;;;4994084;28;20191;-92
2024/03/01 13:02:14;;;;;;;6.35;4.63;;;;;;;;;;4993397;28;20207;-91
2024/03/01 13:04:50;;;;;;;12.15;6.22;;;;;;;;;;4993470;28;20244;-92
2024/03/01 13:07:19;;;;;;;5.95;5.30;;;;;;;;;;4994255;28;20294;-91
2024/03/01 13:09:54;;;;;;;8.02;6.65;;;;;;;;;;4993699;28;20287;-92
2024/03/01 13:12:24;;;;;;;8.80;7.38;;;;;;;;;;4993349;28;20207;-91
2024/03/01 13:15:06;;;;;;;7.90;6.38;;;;;;;;;;4993387;28;20761;-91
2024/03/01 13:17:40;;;;;;;11.18;8.25;;;;;;;;;;4993472;28;20204;-92
2024/03/01 13:20:31;;;;;;;10.23;7.13;;;;;;;;;;4994750;28;20195;-91
2024/03/01 13:23:29;;;;;;;12.88;9.15;;;;;;;;;;4997514;28;20286;-92
2024/03/01 13:26:20;;;;;;;12.98;9.23;;;;;;;;;;4997662;28;20223;-91
2024/03/01 13:28:55;;;;;;;11.63;6.95;;;;;;;;;;4998417;28;20207;-92
2024/03/01 13:31:26;;;;;;;8.30;6.90;;;;;;;;;;5000503;28;20286;-91
2024/03/01 13:33:57;;;;;;;22.48;13.20;;;;;;;;;;4997455;28;20223;-92
2024/03/01 13:36:30;;;;;;;14.65;9.00;;;;;;;;;;4997327;28;20266;-90
2024/03/01 13:39:14;;;;;;;14.63;9.77;;;;;;;;;;4997357;28;20214;-91
2024/03/01 13:41:56;;;;;;;17.52;10.57;;;;;;;;;;4997488;28;20212;-91
2024/03/01 13:44:28;;;;;;;17.15;10.63;;;;;;;;;;4997210;28;20619;-91
2024/03/01 13:47:02;;;;;;;16.10;12.30;;;;;;;;;;4997197;28;20207;-91
2024/03/01 13:49:35;;;;;;;10.93;8.15;;;;;;;;;;4997274;28;20207;-91
2024/03/01 13:52:07;;;;;;;26.13;14.65;;;;;;;;;;4996949;28;20279;-91
2024/03/01 13:54:36;;;;;;;13.25;8.65;;;;;;;;;;4996790;28;20235;-91
2024/03/01 13:57:07;;;;;;;21.00;12.60;;;;;;;;;;4997128;28;20287;-91
2024/03/01 13:59:35;;;;;;;17.40;10.10;;;;;;;;;;4996940;28;20730;-91
2024/03/01 14:02:05;;;;;;;19.55;12.18;;;;;;;;;;4996871;28;20210;-91
2024/03/01 14:04:33;;;;;;;15.30;11.32;;;;;;;;;;4996820;28;20648;-91
2024/03/01 14:07:00;;;;;;;12.20;6.85;;;;;;;;;;4997034;28;20199;-91
2024/03/01 14:09:28;;;;;;;12.18;7.95;;;;;;;;;;4997222;28;20291;-91
2024/03/01 14:11:56;;;;;;;6.07;5.10;;;;;;;;;;4997138;28;20290;-91
2024/03/01 14:14:25;;;;;;;5.80;5.07;;;;;;;;;;4996770;28;20254;-91
2024/03/01 14:16:52;;;;;;;6.45;5.63;;;;;;;;;;4996856;28;20575;-91
2024/03/01 14:19:20;;;;;;;7.95;6.93;;;;;;;;;;4996953;28;20275;-92
2024/03/01 14:21:47;;;;;;;8.32;6.22;;;;;;;;;;4996424;28;20204;-91
2024/03/01 14:24:17;;;;;;;6.68;5.65;;;;;;;;;;4996793;28;20298;-91
2024/03/01 14:26:45;;;;;;;7.00;6.18;;;;;;;;;;4996731;28;20211;-91
2024/03/01 14:29:12;;;;;;;8.15;7.30;;;;;;;;;;4996508;28;20231;-91
2024/03/01 14:32:02;;;;;;;6.53;5.70;;;;;;;;;;4995700;28;20206;-90
2024/03/01 14:34:36;;;;;;;4.80;4.35;;;;;;;;;;4996066;28;20659;-91
2024/03/01 14:37:05;;;;;;;8.50;7.00;;;;;;;;;;4998935;28;20294;-91
2024/03/01 14:39:33;;;;;;;8.05;7.20;;;;;;;;;;4999090;28;20215;-91
2024/03/01 14:42:00;;;;;;;10.30;8.40;;;;;;;;;;4999126;28;20670;-91
2024/03/01 14:44:28;;;;;;;7.47;6.65;;;;;;;;;;4997051;28;20275;-90
2024/03/01 14:46:58;;;;;;;8.30;7.10;;;;;;;;;;4996707;28;20299;-91
2024/03/01 14:49:26;;;;;;;8.82;7.88;;;;;;;;;;4996363;28;20234;-90
2024/03/01 14:51:54;;;;;;;7.18;6.47;;;;;;;;;;4996298;28;20279;-91